createdAt,value
2019-04-28T00:04:25.956Z,4.78
2019-04-28T00:09:32.237Z,4.50
2019-04-28T00:14:38.479Z,4.72
2019-04-28T00:19:44.710Z,4.90
2019-04-28T00:25:11.495Z,4.30
2019-04-28T00:30:17.959Z,5.37
2019-04-28T00:35:24.084Z,5.45
2019-04-28T00:40:31.641Z,5.65
2019-04-28T00:45:38.017Z,5.25
2019-04-28T00:50:44.293Z,4.95
2019-04-28T00:55:51.584Z,5.25
2019-04-28T01:01:01.392Z,5.37
2019-04-28T01:06:07.507Z,5.10
2019-04-28T01:11:13.794Z,4.55
2019-04-28T01:16:26.575Z,5.70
2019-04-28T01:21:50.314Z,5.40
2019-04-28T01:26:56.668Z,4.83
2019-04-28T01:32:37.092Z,4.95
2019-04-28T01:37:43.330Z,4.42
2019-04-28T01:42:49.940Z,4.40
2019-04-28T01:47:56.274Z,4.28
2019-04-28T01:53:02.605Z,4.58
2019-04-28T01:58:09.558Z,4.62
2019-04-28T02:03:15.672Z,4.12
2019-04-28T02:08:21.873Z,3.58
2019-04-28T02:13:29.865Z,4.22
2019-04-28T02:18:36.428Z,4.30
2019-04-28T02:23:43.184Z,4.50
2019-04-28T02:28:50.446Z,4.42
2019-04-28T02:33:56.748Z,4.08
2019-04-28T02:39:02.669Z,4.45
2019-04-28T02:44:10.436Z,4.40
2019-04-28T02:49:24.628Z,4.78
2019-04-28T02:54:30.988Z,5.35
2019-04-28T02:59:37.171Z,5.97
2019-04-28T03:04:43.306Z,4.78
2019-04-28T03:09:51.873Z,4.58
2019-04-28T03:14:56.974Z,4.80
2019-04-28T03:20:03.468Z,4.55
2019-04-28T03:25:14.257Z,4.78
2019-04-28T03:30:37.855Z,4.30
2019-04-28T03:35:44.401Z,4.40
2019-04-28T03:40:51.393Z,4.03
2019-04-28T03:46:03.611Z,4.12
2019-04-28T03:51:12.970Z,3.65
2019-04-28T03:56:17.511Z,3.72
2019-04-28T04:01:24.059Z,3.40
2019-04-28T04:06:31.162Z,3.70
2019-04-28T04:11:42.879Z,3.50
2019-04-28T04:16:56.767Z,4.20
2019-04-28T04:22:03.000Z,3.80
2019-04-28T04:27:10.738Z,3.87
2019-04-28T04:32:23.087Z,4.97
2019-04-28T04:37:24.946Z,4.03
2019-04-28T04:42:31.083Z,3.58
2019-04-28T04:47:37.182Z,3.92
2019-04-28T04:52:43.426Z,4.62
2019-04-28T04:57:50.735Z,4.35
2019-04-28T05:03:21.109Z,4.20
2019-04-28T05:08:27.778Z,4.00
2019-04-28T05:13:33.859Z,3.87
2019-04-28T05:18:41.756Z,4.65
2019-04-28T05:24:10.170Z,5.00
2019-04-28T05:29:13.180Z,4.50
2019-04-28T05:34:20.487Z,4.83
2019-04-28T05:39:26.839Z,4.67
2019-04-28T05:44:32.848Z,4.10
2019-04-28T05:49:56.255Z,3.62
2019-04-28T05:55:10.110Z,3.92
2019-04-28T06:00:44.393Z,3.92
2019-04-28T06:05:51.709Z,3.70
2019-04-28T06:10:59.806Z,4.10
2019-04-28T06:16:05.677Z,3.67
2019-04-28T06:21:11.776Z,4.37
2019-04-28T06:26:17.780Z,4.25
2019-04-28T06:31:24.127Z,3.42
2019-04-28T06:36:30.217Z,3.12
2019-04-28T06:41:36.376Z,3.75
2019-04-28T06:46:42.954Z,4.15
2019-04-28T06:51:49.044Z,4.10
2019-04-28T06:56:55.347Z,4.62
2019-04-28T07:02:01.722Z,5.50
2019-04-28T07:07:07.952Z,5.78
2019-04-28T07:12:14.644Z,6.05
2019-04-28T07:17:21.062Z,4.47
2019-04-28T07:22:29.295Z,3.80
2019-04-28T07:27:35.517Z,3.22
2019-04-28T07:32:41.634Z,3.27
2019-04-28T07:37:47.833Z,3.00
2019-04-28T07:42:54.351Z,2.92
2019-04-28T07:48:00.383Z,2.35
2019-04-28T07:53:20.794Z,2.45
2019-04-28T07:58:27.257Z,2.40
2019-04-28T08:03:33.552Z,2.40
2019-04-28T08:08:39.815Z,2.05
2019-04-28T08:13:46.099Z,1.90
2019-04-28T08:18:52.420Z,2.25
2019-04-28T08:23:58.598Z,1.75
2019-04-28T08:29:04.744Z,2.17
2019-04-28T08:34:11.813Z,2.42
2019-04-28T08:39:18.483Z,2.30
2019-04-28T08:44:24.568Z,1.80
2019-04-28T08:49:30.726Z,2.25
2019-04-28T08:54:36.708Z,2.02
2019-04-28T08:59:43.704Z,1.90
2019-04-28T09:04:49.735Z,1.80
2019-04-28T09:09:55.593Z,2.20
2019-04-28T09:15:02.132Z,2.20
2019-04-28T09:20:08.502Z,1.95
2019-04-28T09:25:15.109Z,1.98
2019-04-28T09:30:22.088Z,1.70
2019-04-28T09:35:28.357Z,2.27
2019-04-28T09:40:34.434Z,1.82
2019-04-28T09:45:52.310Z,2.10
2019-04-28T09:50:58.486Z,1.75
2019-04-28T09:56:04.809Z,2.27
2019-04-28T10:01:10.842Z,2.40
2019-04-28T10:06:17.005Z,2.10
2019-04-28T10:11:30.355Z,1.67
2019-04-28T10:16:30.898Z,2.50
2019-04-28T10:21:37.172Z,2.50
2019-04-28T10:26:43.538Z,1.87
2019-04-28T10:31:49.739Z,2.08
2019-04-28T10:36:55.992Z,2.00
2019-04-28T10:42:02.093Z,1.60
2019-04-28T10:47:09.135Z,1.87
2019-04-28T10:52:15.381Z,1.80
2019-04-28T10:57:21.703Z,1.75
2019-04-28T11:02:27.762Z,1.65
2019-04-28T11:07:33.997Z,1.55
2019-04-28T11:12:40.195Z,1.87
2019-04-28T11:17:46.566Z,1.82
2019-04-28T11:22:53.021Z,1.90
2019-04-28T11:27:59.327Z,1.60
2019-04-28T11:33:30.532Z,2.08
2019-04-28T11:38:36.645Z,1.80
2019-04-28T11:43:42.859Z,2.33
2019-04-28T11:48:49.077Z,1.55
2019-04-28T11:53:55.092Z,1.90
2019-04-28T11:59:01.678Z,1.98
2019-04-28T12:04:09.806Z,1.60
2019-04-28T12:09:26.854Z,1.80
2019-04-28T12:14:44.668Z,1.90
2019-04-28T12:19:53.916Z,1.70
2019-04-28T12:24:59.866Z,2.05
2019-04-28T12:30:06.624Z,2.08
2019-04-28T12:35:12.582Z,2.02
2019-04-28T12:40:18.524Z,2.27
2019-04-28T12:45:34.813Z,1.80
2019-04-28T12:50:38.318Z,1.98
2019-04-28T12:55:44.443Z,1.90
2019-04-28T13:01:13.854Z,1.75
2019-04-28T13:06:19.805Z,1.70
2019-04-28T13:11:25.965Z,1.80
2019-04-28T13:16:32.044Z,1.95
2019-04-28T13:21:38.226Z,2.27
2019-04-28T13:26:44.343Z,2.40
2019-04-28T13:31:50.694Z,1.85
2019-04-28T13:36:56.879Z,2.22
2019-04-28T13:42:03.157Z,3.75
2019-04-28T13:47:09.484Z,3.30
2019-04-28T13:52:15.770Z,2.92
2019-04-28T13:57:21.985Z,2.35
2019-04-28T14:02:40.869Z,2.25
2019-04-28T14:07:47.076Z,1.92
2019-04-28T14:12:52.986Z,2.10
2019-04-28T14:17:59.160Z,1.77
2019-04-28T14:23:05.243Z,1.60
2019-04-28T14:28:11.513Z,2.25
2019-04-28T14:33:17.721Z,2.27
2019-04-28T14:38:23.583Z,2.37
2019-04-28T14:43:29.491Z,2.00
2019-04-28T14:48:35.574Z,1.90
2019-04-28T14:53:41.674Z,1.98
2019-04-28T14:58:47.861Z,1.85
2019-04-28T15:03:55.928Z,2.20
2019-04-28T15:09:13.001Z,2.45
2019-04-28T15:14:19.243Z,2.20
2019-04-28T15:19:25.575Z,2.08
2019-04-28T15:24:31.741Z,2.12
2019-04-28T15:29:38.018Z,1.80
2019-04-28T15:34:43.887Z,2.60
2019-04-28T15:39:50.012Z,3.45
2019-04-28T15:44:55.947Z,1.70
2019-04-28T15:50:01.839Z,2.00
2019-04-28T15:55:09.426Z,1.90
2019-04-28T16:00:15.538Z,2.22
2019-04-28T16:05:21.757Z,2.25
2019-04-28T16:10:27.663Z,2.20
2019-04-28T16:15:34.218Z,2.17
2019-04-28T16:20:40.667Z,2.40
2019-04-28T16:25:46.528Z,2.08
2019-04-28T16:30:52.386Z,2.00
2019-04-28T16:35:58.307Z,2.00
2019-04-28T16:41:05.287Z,2.25
2019-04-28T16:46:11.329Z,2.62
2019-04-28T16:51:17.215Z,2.25
2019-04-28T16:57:00.446Z,2.35
2019-04-28T17:02:18.037Z,2.45
2019-04-28T17:07:24.045Z,2.30
2019-04-28T17:12:29.960Z,3.00
2019-04-28T17:17:35.805Z,3.00
2019-04-28T17:22:41.664Z,2.27
2019-04-28T17:27:47.566Z,2.58
2019-04-28T17:32:53.580Z,2.87
2019-04-28T17:38:06.514Z,2.60
2019-04-28T17:43:08.127Z,2.65
2019-04-28T17:48:22.180Z,2.47
2019-04-28T17:53:28.331Z,2.62
2019-04-28T17:58:34.411Z,2.47
2019-04-28T18:03:52.628Z,3.10
2019-04-28T18:08:59.124Z,2.87
2019-04-28T18:14:05.372Z,2.77
2019-04-28T18:19:12.426Z,2.98
2019-04-28T18:24:18.610Z,2.40
2019-04-28T18:29:24.493Z,2.87
2019-04-28T18:34:52.551Z,2.80
2019-04-28T18:40:07.667Z,2.90
2019-04-28T18:45:13.642Z,2.90
2019-04-28T18:50:19.631Z,2.92
2019-04-28T18:55:25.479Z,2.77
2019-04-28T19:00:33.422Z,3.20
2019-04-28T19:05:41.895Z,3.17
2019-04-28T19:11:06.810Z,2.92
2019-04-28T19:16:31.568Z,2.95
2019-04-28T19:21:37.451Z,3.17
2019-04-28T19:26:43.296Z,3.12
2019-04-28T19:31:49.163Z,3.08
2019-04-28T19:36:55.072Z,2.70
2019-04-28T19:42:00.952Z,3.25
2019-04-28T19:47:06.975Z,3.12
2019-04-28T19:52:12.910Z,3.30
2019-04-28T19:57:28.546Z,2.65
2019-04-28T20:02:35.471Z,3.55
2019-04-28T20:07:41.552Z,2.75
2019-04-28T20:12:48.717Z,3.00
2019-04-28T20:17:54.856Z,2.90
2019-04-28T20:23:00.921Z,3.35
2019-04-28T20:28:06.897Z,3.33
2019-04-28T20:33:13.502Z,3.55
2019-04-28T20:38:31.164Z,4.45
2019-04-28T20:43:37.458Z,3.87
2019-04-28T20:48:43.496Z,4.95
2019-04-28T20:53:49.703Z,5.62
2019-04-28T20:58:55.836Z,5.55
2019-04-28T21:04:01.681Z,6.22
2019-04-28T21:09:09.732Z,7.28
2019-04-28T21:14:16.133Z,7.30
2019-04-28T21:19:22.382Z,6.72
2019-04-28T21:24:28.385Z,4.85
2019-04-28T21:29:34.652Z,4.67
2019-04-28T21:34:40.930Z,4.55
2019-04-28T21:39:47.108Z,3.75
2019-04-28T21:45:12.330Z,4.47
2019-04-28T21:50:19.073Z,4.17
2019-04-28T21:55:25.063Z,4.55
2019-04-28T22:00:39.713Z,4.78
2019-04-28T22:05:45.875Z,4.80
2019-04-28T22:10:52.006Z,3.87
2019-04-28T22:15:58.341Z,4.60
2019-04-28T22:21:04.624Z,4.67
2019-04-28T22:26:12.494Z,4.45
2019-04-28T22:31:18.755Z,5.28
2019-04-28T22:36:24.973Z,6.40
2019-04-28T22:41:31.076Z,7.60
2019-04-28T22:46:37.159Z,10.45
2019-04-28T22:51:43.519Z,12.20
2019-04-28T22:56:59.541Z,11.45
2019-04-28T23:02:11.426Z,9.05
2019-04-28T23:07:17.858Z,9.83
2019-04-28T23:12:23.751Z,10.48
2019-04-28T23:17:29.605Z,9.43
2019-04-28T23:22:46.958Z,9.85
2019-04-28T23:27:48.659Z,12.07
2019-04-28T23:32:54.503Z,7.72
2019-04-28T23:38:00.494Z,7.22
2019-04-28T23:43:14.681Z,11.00
2019-04-28T23:48:20.535Z,11.90
2019-04-28T23:53:44.150Z,12.05
2019-04-28T23:58:50.058Z,10.72
